Time;durP1;ratioP1;P1;durP2;ratioP2;P2;SDS_P1;SDS_P2;PMS_P1;PMS_P2;Temp;Humidity;BMP_temperature;BMP_pressure;BME280_temperature;BME280_humidity;BME280_pressure;Samples;Min_cycle;Max_cycle;Signal;HPM_P1;HPM_P2
2022/03/25 00:01:07;;;;;;;44.38;22.13;;;;;;;5.94;59.13;100481.28;4950400;28;20046;-52
2022/03/25 00:03:33;;;;;;;48.13;23.80;;;;;;;5.82;56.01;100488.88;4934555;29;20032;-51
2022/03/25 00:05:58;;;;;;;50.90;24.88;;;;;;;5.67;56.18;100480.84;4945709;28;20047;-50
2022/03/25 00:08:24;;;;;;;52.35;24.20;;;;;;;5.53;59.44;100485.13;4946990;28;20035;-51
2022/03/25 00:10:49;;;;;;;44.88;21.60;;;;;;;5.39;61.15;100481.41;4950380;28;20039;-53
2022/03/25 00:13:15;;;;;;;48.05;25.15;;;;;;;5.39;58.60;100473.44;4946971;28;20055;-51
2022/03/25 00:15:41;;;;;;;45.75;23.85;;;;;;;5.41;59.24;100481.22;4943136;28;20062;-50
2022/03/25 00:18:06;;;;;;;42.50;22.02;;;;;;;5.76;62.31;100484.25;4943438;29;20575;-53
2022/03/25 00:20:32;;;;;;;39.45;21.05;;;;;;;5.80;62.48;100483.72;4945736;28;20039;-51
2022/03/25 00:22:57;;;;;;;44.08;22.33;;;;;;;5.94;59.71;100478.63;4947635;29;20038;-52
2022/03/25 00:25:23;;;;;;;47.03;22.80;;;;;;;5.94;58.17;100481.28;4948552;28;20039;-51
2022/03/25 00:27:48;;;;;;;45.53;22.50;;;;;;;5.76;59.23;100482.41;4938735;28;20370;-51
2022/03/25 00:30:14;;;;;;;48.15;24.83;;;;;;;5.83;58.11;100483.34;4940742;28;20066;-50
2022/03/25 00:32:40;;;;;;;47.05;23.27;;;;;;;5.89;56.56;100484.50;4947520;29;20019;-50
2022/03/25 00:35:06;;;;;;;47.08;23.95;;;;;;;5.64;56.88;100486.50;4949720;28;20039;-54
2022/03/25 00:37:32;;;;;;;54.40;25.52;;;;;;;5.32;58.25;100488.44;4946992;29;20027;-52
2022/03/25 00:39:57;;;;;;;50.35;25.55;;;;;;;5.39;59.68;100484.06;4944743;29;20031;-50
2022/03/25 00:42:24;;;;;;;58.53;29.55;;;;;;;5.40;59.36;100480.41;4945994;28;20043;-52
2022/03/25 00:44:50;;;;;;;51.60;24.88;;;;;;;5.30;58.81;100482.47;4946375;28;20455;-51
2022/03/25 00:47:15;;;;;;;58.65;28.95;;;;;;;5.39;61.48;100480.56;4947602;28;20039;-52
2022/03/25 00:49:40;;;;;;;56.28;26.10;;;;;;;5.17;59.58;100476.94;4950119;28;20082;-50
2022/03/25 00:52:06;;;;;;;48.70;24.33;;;;;;;5.32;63.11;100483.13;4948895;28;20047;-50
2022/03/25 00:54:31;;;;;;;56.80;25.10;;;;;;;5.30;59.11;100482.47;4949477;29;20485;-52
2022/03/25 00:56:57;;;;;;;50.05;23.92;;;;;;;5.20;59.66;100476.56;4948361;28;20054;-50
2022/03/25 00:59:23;;;;;;;44.33;23.55;;;;;;;5.15;60.77;100477.09;4942788;29;20115;-51
2022/03/25 01:01:48;;;;;;;51.17;24.50;;;;;;;5.03;61.13;100477.69;4940125;28;20458;-49
2022/03/25 01:04:13;;;;;;;50.47;24.90;;;;;;;4.63;62.79;100471.59;4935356;29;20034;-51
2022/03/25 01:06:40;;;;;;;53.05;26.27;;;;;;;4.73;61.56;100473.00;4949536;28;20532;-52
2022/03/25 01:09:05;;;;;;;54.35;25.65;;;;;;;4.70;61.43;100472.56;4948796;28;20034;-52
2022/03/25 01:11:31;;;;;;;51.13;27.70;;;;;;;4.93;62.19;100475.25;4941627;28;20043;-50
2022/03/25 01:13:58;;;;;;;51.25;26.25;;;;;;;4.84;61.05;100469.16;4942402;29;20622;-49
2022/03/25 01:16:24;;;;;;;51.13;24.65;;;;;;;4.73;61.51;100466.88;4940647;28;20074;-50
2022/03/25 01:18:49;;;;;;;40.70;21.27;;;;;;;4.81;64.93;100466.84;4943135;29;20058;-52
2022/03/25 01:21:17;;;;;;;48.20;24.02;;;;;;;4.70;62.48;100472.56;4945216;28;20818;-50
2022/03/25 01:23:43;;;;;;;49.00;23.90;;;;;;;4.53;63.59;100472.63;4949395;28;20414;-52
2022/03/25 01:26:09;;;;;;;46.20;23.35;;;;;;;4.51;64.83;100471.94;4942123;28;20043;-53
2022/03/25 01:28:35;;;;;;;46.25;21.90;;;;;;;4.49;64.90;100475.78;4947290;29;20447;-52
2022/03/25 01:31:01;;;;;;;43.33;21.83;;;;;;;4.41;65.19;100471.34;4932158;28;20098;-52
2022/03/25 01:33:27;;;;;;;44.22;22.15;;;;;;;4.48;65.64;100469.66;4944059;29;20036;-51
2022/03/25 01:35:52;;;;;;;50.13;24.27;;;;;;;4.40;63.32;100461.72;4947606;28;20061;-52
2022/03/25 01:38:18;;;;;;;47.83;23.10;;;;;;;4.40;64.27;100469.69;4948377;28;20394;-53
2022/03/25 01:40:43;;;;;;;42.20;22.77;;;;;;;4.48;64.69;100466.16;4944684;28;20040;-52
2022/03/25 01:43:09;;;;;;;45.25;23.45;;;;;;;4.49;63.10;100460.69;4947252;29;20362;-54
2022/03/25 01:45:36;;;;;;;47.80;23.33;;;;;;;4.42;64.06;100465.03;4942228;28;20056;-53
2022/03/25 01:48:03;;;;;;;41.00;21.55;;;;;;;4.53;68.30;100456.69;4941010;29;20031;-53
2022/03/25 01:50:28;;;;;;;61.55;23.65;;;;;;;4.22;66.29;100461.97;4947937;28;20406;-51
2022/03/25 01:52:54;;;;;;;49.47;24.80;;;;;;;4.16;65.04;100459.16;4948056;28;20035;-52
2022/03/25 01:55:21;;;;;;;48.63;24.00;;;;;;;4.04;65.41;100456.88;4953895;28;20027;-50
2022/03/25 01:57:46;;;;;;;55.03;27.00;;;;;;;3.95;65.31;100457.06;4936808;29;20027;-51
2022/03/25 02:00:13;;;;;;;48.08;24.75;;;;;;;3.98;66.70;100460.19;4948402;28;20073;-49
2022/03/25 02:02:39;;;;;;;50.35;23.75;;;;;;;3.87;68.11;100449.94;4940959;28;20031;-51
2022/03/25 02:05:05;;;;;;;55.80;25.98;;;;;;;3.92;65.57;100452.06;4941474;28;20402;-54
2022/03/25 02:07:31;;;;;;;52.03;24.60;;;;;;;4.00;65.11;100452.06;4948406;29;20046;-53
2022/03/25 02:09:56;;;;;;;47.30;22.92;;;;;;;4.04;66.38;100450.72;4942744;29;20433;-49
2022/03/25 02:12:22;;;;;;;46.13;24.20;;;;;;;3.95;65.63;100452.56;4944770;28;20138;-52
2022/03/25 02:14:47;;;;;;;47.45;22.90;;;;;;;4.16;65.19;100445.88;4946419;28;20046;-51
2022/03/25 02:17:13;;;;;;;47.10;22.98;;;;;;;3.89;65.35;100439.97;4948891;28;20414;-49
2022/03/25 02:19:38;;;;;;;54.90;24.77;;;;;;;3.74;66.26;100449.63;4948283;28;20051;-54
2022/03/25 02:22:04;;;;;;;48.13;23.10;;;;;;;3.67;70.66;100445.00;4948538;28;20450;-52
2022/03/25 02:24:30;;;;;;;43.50;22.80;;;;;;;3.57;67.71;100444.34;4948500;28;20035;-53
2022/03/25 02:26:55;;;;;;;54.38;23.80;;;;;;;3.51;69.02;100434.41;4946904;28;20501;-53
2022/03/25 02:29:21;;;;;;;45.47;21.50;;;;;;;3.46;71.92;100439.38;4928030;29;20032;-54
2022/03/25 02:31:46;;;;;;;44.28;23.20;;;;;;;3.61;70.75;100444.84;4937835;28;20040;-51
2022/03/25 02:34:11;;;;;;;49.17;23.45;;;;;;;3.37;69.01;100445.66;4940499;29;20403;-51
2022/03/25 02:36:41;;;;;;;47.38;23.45;;;;;;;3.32;69.50;100440.88;4945385;28;20042;-50
2022/03/25 02:39:07;;;;;;;44.63;23.53;;;;;;;3.60;71.63;100446.66;4948671;28;20031;-49
2022/03/25 02:41:33;;;;;;;51.83;22.63;;;;;;;3.35;68.76;100445.03;4943467;28;20114;-51
2022/03/25 02:43:59;;;;;;;42.45;22.60;;;;;;;3.12;69.92;100444.81;4943917;29;20182;-51
2022/03/25 02:46:25;;;;;;;47.20;23.13;;;;;;;3.46;71.44;100450.81;4941280;28;20047;-49
2022/03/25 02:48:50;;;;;;;44.88;21.42;;;;;;;3.45;71.76;100451.00;4946947;28;20112;-51
2022/03/25 02:51:15;;;;;;;53.13;25.00;;;;;;;3.32;68.74;100447.97;4951646;28;20046;-52
2022/03/25 02:53:41;;;;;;;57.10;25.25;;;;;;;3.56;71.86;100449.81;4952682;28;20038;-50
2022/03/25 02:56:06;;;;;;;48.58;23.65;;;;;;;3.78;69.17;100450.94;4947871;28;20505;-52
2022/03/25 02:58:32;;;;;;;43.80;22.60;;;;;;;4.06;72.77;100449.56;4946625;28;20615;-50
2022/03/25 03:00:57;;;;;;;49.15;22.52;;;;;;;3.62;67.39;100451.78;4946787;28;20043;-53
2022/03/25 03:03:23;;;;;;;45.88;22.48;;;;;;;3.77;67.30;100449.28;4951546;29;20035;-52
2022/03/25 03:05:48;;;;;;;45.35;22.63;;;;;;;3.62;69.03;100452.63;4951693;28;20043;-53
2022/03/25 03:08:13;;;;;;;49.45;23.05;;;;;;;3.51;69.48;100450.31;4946780;29;20027;-54
2022/03/25 03:10:40;;;;;;;45.30;22.60;;;;;;;3.31;69.58;100449.00;4951339;28;20039;-50
2022/03/25 03:13:05;;;;;;;48.33;23.05;;;;;;;3.30;70.83;100453.47;4945729;29;20028;-53
2022/03/25 03:15:31;;;;;;;46.53;23.55;;;;;;;3.54;67.78;100449.97;4951355;28;20437;-52
2022/03/25 03:17:57;;;;;;;54.67;24.70;;;;;;;3.19;68.98;100451.13;4947388;28;20378;-54
2022/03/25 03:20:24;;;;;;;52.20;23.50;;;;;;;2.82;70.55;100449.75;4949157;28;20050;-50
2022/03/25 03:22:49;;;;;;;49.65;24.65;;;;;;;2.75;70.82;100457.53;4941973;28;20056;-54
2022/03/25 03:25:15;;;;;;;46.03;23.30;;;;;;;2.79;73.14;100453.53;4938828;28;20044;-52
2022/03/25 03:27:40;;;;;;;48.30;23.15;;;;;;;2.78;71.02;100448.44;4940914;29;20458;-52
2022/03/25 03:30:08;;;;;;;44.38;24.05;;;;;;;3.06;72.90;100448.97;4946414;28;20035;-51
2022/03/25 03:32:34;;;;;;;45.92;24.67;;;;;;;3.08;73.21;100448.81;4951649;28;20038;-50
2022/03/25 03:34:59;;;;;;;50.55;24.30;;;;;;;2.92;71.39;100455.75;4946770;29;20042;-50
2022/03/25 03:37:25;;;;;;;48.50;25.10;;;;;;;2.74;71.45;100455.84;4947047;28;20043;-51
2022/03/25 03:39:51;;;;;;;47.35;24.38;;;;;;;2.53;71.78;100445.72;4948421;29;20035;-48
2022/03/25 03:42:16;;;;;;;48.58;25.15;;;;;;;2.47;72.98;100448.16;4947488;28;20155;-52
2022/03/25 03:44:42;;;;;;;53.33;26.60;;;;;;;2.64;74.62;100455.16;4943984;29;20462;-51
2022/03/25 03:47:08;;;;;;;47.78;24.63;;;;;;;2.75;76.00;100456.69;4950711;28;20035;-52
2022/03/25 03:49:34;;;;;;;50.47;24.90;;;;;;;2.72;72.50;100460.50;4951076;29;20114;-52
2022/03/25 03:52:00;;;;;;;51.50;24.77;;;;;;;2.66;72.89;100461.13;4948678;28;20039;-49
2022/03/25 03:54:25;;;;;;;58.28;25.73;;;;;;;2.64;73.53;100463.09;4949011;29;20070;-52
2022/03/25 03:56:51;;;;;;;55.38;25.83;;;;;;;2.78;73.11;100459.03;4945362;28;20148;-51
2022/03/25 03:59:16;;;;;;;47.63;24.15;;;;;;;2.95;73.29;100454.59;4943884;29;20028;-50
2022/03/25 04:01:41;;;;;;;53.85;24.92;;;;;;;3.09;75.39;100456.59;4939885;28;20043;-52
2022/03/25 04:04:07;;;;;;;52.20;25.20;;;;;;;2.95;73.12;100460.72;4937562;29;20397;-52
2022/03/25 04:06:32;;;;;;;50.92;25.50;;;;;;;2.75;72.91;100457.53;4940157;28;20044;-51
2022/03/25 04:08:58;;;;;;;52.92;24.40;;;;;;;2.64;73.92;100463.09;4949634;28;20587;-49
2022/03/25 04:11:23;;;;;;;44.83;23.83;;;;;;;2.44;77.82;100453.78;4950215;28;20406;-50
2022/03/25 04:13:49;;;;;;;49.92;25.08;;;;;;;2.71;77.09;100456.19;4947365;29;20062;-51
2022/03/25 04:16:14;;;;;;;51.00;24.73;;;;;;;2.77;74.85;100452.91;4943909;28;20557;-51
2022/03/25 04:18:39;;;;;;;47.97;23.40;;;;;;;2.83;75.16;100455.88;4945667;29;20023;-51
2022/03/25 04:21:05;;;;;;;48.60;25.10;;;;;;;2.73;73.34;100451.56;4945972;28;20498;-52
2022/03/25 04:23:31;;;;;;;47.35;24.90;;;;;;;2.54;73.26;100457.13;4950404;29;20078;-49
2022/03/25 04:25:56;;;;;;;44.55;23.05;;;;;;;2.42;75.67;100453.09;4945347;28;20348;-51
2022/03/25 04:28:22;;;;;;;47.60;24.85;;;;;;;2.22;74.40;100458.66;4944513;29;20035;-51
2022/03/25 04:30:47;;;;;;;49.67;24.85;;;;;;;1.93;75.25;100462.44;4949310;28;20047;-50
2022/03/25 04:33:13;;;;;;;50.10;25.42;;;;;;;1.79;75.06;100470.94;4950522;28;20082;-49
2022/03/25 04:35:38;;;;;;;49.67;23.50;;;;;;;1.25;77.24;100470.22;4942901;29;20734;-49
2022/03/25 04:38:04;;;;;;;55.28;26.13;;;;;;;1.42;78.23;100477.31;4949100;29;20047;-49
2022/03/25 04:40:29;;;;;;;51.70;26.80;;;;;;;1.83;79.12;100474.13;4940014;28;20057;-49
2022/03/25 04:42:56;;;;;;;51.10;25.70;;;;;;;1.67;77.58;100475.69;4938528;29;20035;-49
2022/03/25 04:45:21;;;;;;;64.55;24.85;;;;;;;1.75;79.69;100476.69;4942666;28;20586;-52
2022/03/25 04:47:47;;;;;;;52.67;25.33;;;;;;;1.69;77.94;100473.69;4941354;28;20023;-52
2022/03/25 04:50:12;;;;;;;59.03;26.75;;;;;;;1.58;77.39;100475.78;4949600;28;20043;-51
2022/03/25 04:52:38;;;;;;;52.50;24.73;;;;;;;1.56;78.53;100481.19;4946858;28;20031;-52
2022/03/25 04:55:04;;;;;;;52.00;25.80;;;;;;;1.39;77.55;100482.03;4934557;28;20442;-51
2022/03/25 04:57:30;;;;;;;51.60;26.38;;;;;;;1.39;77.62;100482.88;4942156;29;20020;-50
2022/03/25 04:59:55;;;;;;;52.83;26.35;;;;;;;1.36;77.69;100483.19;4949475;28;20492;-51
2022/03/25 05:02:21;;;;;;;53.33;26.80;;;;;;;1.48;78.79;100492.53;4943837;28;20411;-50
2022/03/25 05:04:47;;;;;;;57.10;27.85;;;;;;;1.45;78.12;100487.56;4947044;29;20049;-51
2022/03/25 05:07:16;;;;;;;69.60;30.20;;;;;;;1.67;77.71;100493.31;4958833;28;20043;-50
2022/03/25 05:09:41;;;;;;;58.20;28.50;;;;;;;1.56;78.07;100485.66;4946939;29;20058;-49
2022/03/25 05:12:07;;;;;;;99.60;29.67;;;;;;;1.54;79.02;100485.81;4942018;28;20055;-52
2022/03/25 05:14:34;;;;;;;84.32;27.73;;;;;;;1.87;79.14;100486.03;4948006;28;20039;-51
2022/03/25 05:16:59;;;;;;;61.50;29.00;;;;;;;2.04;78.22;100492.25;4949544;28;20040;-50
2022/03/25 05:19:25;;;;;;;55.78;27.58;;;;;;;1.82;77.46;100483.03;4948747;29;20040;-52
2022/03/25 05:21:50;;;;;;;60.45;28.45;;;;;;;1.97;78.68;100486.75;4948348;28;20549;-51
2022/03/25 05:24:16;;;;;;;52.83;26.63;;;;;;;2.21;81.59;100487.91;4944872;28;20027;-52
2022/03/25 05:26:41;;;;;;;55.85;28.50;;;;;;;2.20;77.04;100491.50;4941591;28;20055;-50
2022/03/25 05:29:06;;;;;;;53.22;25.83;;;;;;;1.96;77.76;100503.63;4939420;29;20078;-53
2022/03/25 05:31:32;;;;;;;55.03;26.27;;;;;;;1.49;78.44;100504.75;4946411;28;20101;-50
2022/03/25 05:33:57;;;;;;;49.70;24.73;;;;;;;1.84;82.93;100496.94;4944084;28;20493;-49
2022/03/25 05:36:23;;;;;;;52.53;25.80;;;;;;;1.72;82.06;100510.41;4942741;28;20406;-51
2022/03/25 05:38:51;;;;;;;59.35;27.83;;;;;;;1.43;79.23;100505.38;4942807;28;20031;-51
2022/03/25 05:41:16;;;;;;;50.60;25.85;;;;;;;1.98;81.73;100503.47;4942244;28;20094;-51
2022/03/25 05:43:42;;;;;;;56.28;24.08;;;;;;;1.22;78.58;100510.13;4943089;28;20043;-53
2022/03/25 05:46:08;;;;;;;55.60;26.85;;;;;;;1.62;79.69;100506.16;4936662;28;20478;-52
2022/03/25 05:48:33;;;;;;;52.45;25.85;;;;;;;1.17;80.38;100509.72;4940830;29;20465;-51
2022/03/25 05:50:59;;;;;;;51.00;25.15;;;;;;;1.56;82.73;100512.09;4937166;28;20050;-50
2022/03/25 05:53:26;;;;;;;52.58;26.02;;;;;;;1.42;79.62;100509.00;4941766;28;20027;-54
2022/03/25 05:55:52;;;;;;;50.55;25.80;;;;;;;1.42;78.41;100516.94;4952529;28;20401;-49
2022/03/25 05:58:17;;;;;;;46.75;24.70;;;;;;;1.86;79.01;100516.94;4943075;29;20031;-52
2022/03/25 06:00:43;;;;;;;48.67;25.40;;;;;;;3.40;79.31;100517.75;4938395;28;20062;-53
2022/03/25 06:03:10;;;;;;;55.50;29.85;;;;;;;4.60;69.89;100519.75;4942511;29;20430;-54
2022/03/25 06:05:35;;;;;;;53.83;25.98;;;;;;;4.80;64.88;100520.97;4944146;28;20039;-51
2022/03/25 06:08:01;;;;;;;53.50;25.42;;;;;;;5.59;62.93;100532.28;4928895;29;20066;-52
2022/03/25 06:10:26;;;;;;;53.17;26.10;;;;;;;4.18;67.03;100520.84;4944838;28;20056;-53
2022/03/25 06:12:51;;;;;;;49.25;27.27;;;;;;;4.87;65.85;100524.59;4943910;28;20027;-50
2022/03/25 06:15:17;;;;;;;59.28;27.63;;;;;;;6.32;62.02;100522.00;4938163;28;20035;-50
2022/03/25 06:17:46;;;;;;;51.10;27.23;;;;;;;6.66;58.25;100524.13;4944159;28;20031;-51
2022/03/25 06:20:13;;;;;;;52.70;27.55;;;;;;;6.47;58.47;100525.50;4947872;28;20162;-54
2022/03/25 06:22:40;;;;;;;51.97;27.92;;;;;;;8.00;55.33;100527.13;4943187;29;20429;-53
2022/03/25 06:25:07;;;;;;;48.20;28.33;;;;;;;7.66;55.16;100529.69;4941266;28;20111;-50
2022/03/25 06:27:33;;;;;;;67.82;34.78;;;;;;;8.49;52.87;100535.31;4940853;29;20035;-49
2022/03/25 06:29:58;;;;;;;54.38;30.15;;;;;;;9.35;50.98;100534.81;4949990;29;20042;-51
2022/03/25 06:32:24;;;;;;;60.25;30.60;;;;;;;8.26;53.43;100536.34;4939603;28;20051;-50
2022/03/25 06:34:49;;;;;;;54.58;30.10;;;;;;;9.49;51.14;100537.31;4952331;28;20381;-53
2022/03/25 06:37:15;;;;;;;59.03;32.20;;;;;;;10.00;48.66;100533.22;4951862;28;20051;-50
2022/03/25 06:39:40;;;;;;;51.85;28.88;;;;;;;10.22;47.64;100538.38;4925925;29;20023;-53
2022/03/25 06:42:06;;;;;;;52.30;27.50;;;;;;;10.20;47.26;100540.44;4944267;28;20505;-51
2022/03/25 06:44:31;;;;;;;58.15;30.90;;;;;;;9.63;49.71;100540.00;4944849;29;20565;-50
2022/03/25 06:46:57;;;;;;;53.95;30.60;;;;;;;9.88;48.39;100540.22;4946838;28;20219;-53
2022/03/25 06:49:22;;;;;;;50.85;29.73;;;;;;;9.33;49.56;100539.53;4951816;28;20035;-52
2022/03/25 06:51:48;;;;;;;53.35;31.45;;;;;;;11.08;47.52;100540.00;4946781;28;20521;-52
2022/03/25 06:54:14;;;;;;;51.38;30.33;;;;;;;10.14;47.18;100540.22;4940990;29;20131;-51
2022/03/25 06:56:40;;;;;;;51.60;30.13;;;;;;;10.21;47.30;100540.22;4951176;28;20045;-50
2022/03/25 06:59:06;;;;;;;54.25;31.70;;;;;;;10.27;47.11;100544.75;4951943;28;20470;-52
2022/03/25 07:01:32;;;;;;;64.15;33.88;;;;;;;10.19;47.41;100541.47;4945022;28;20050;-50
2022/03/25 07:03:58;;;;;;;56.10;33.25;;;;;;;9.48;48.83;100546.38;4951782;29;20039;-51
2022/03/25 07:06:24;;;;;;;68.22;34.50;;;;;;;8.83;51.50;100539.78;4948307;28;20074;-50
2022/03/25 07:08:54;;;;;;;63.17;30.60;;;;;;;11.34;46.13;100545.22;4950550;29;20028;-53
2022/03/25 07:11:21;;;;;;;65.07;36.17;;;;;;;10.38;46.75;100546.00;4951791;28;20050;-52
2022/03/25 07:13:46;;;;;;;59.22;34.45;;;;;;;10.05;47.92;100549.50;4940570;28;20043;-51
2022/03/25 07:16:12;;;;;;;68.85;35.85;;;;;;;9.99;48.54;100550.34;4951558;28;20051;-50
2022/03/25 07:18:37;;;;;;;70.45;34.30;;;;;;;10.05;47.77;100552.19;4947185;28;20043;-50
2022/03/25 07:21:04;;;;;;;59.78;33.92;;;;;;;10.46;47.53;100544.94;4943343;28;20055;-51
2022/03/25 07:23:29;;;;;;;72.80;34.25;;;;;;;10.57;46.85;100555.84;4942170;28;20035;-50
2022/03/25 07:25:55;;;;;;;70.13;33.35;;;;;;;10.92;46.41;100547.50;4942540;28;20039;-52
2022/03/25 07:28:20;;;;;;;67.70;34.53;;;;;;;10.78;46.88;100548.56;4947970;28;20086;-53
2022/03/25 07:30:46;;;;;;;65.22;33.83;;;;;;;10.88;47.02;100548.94;4947443;28;20039;-49
2022/03/25 07:33:11;;;;;;;68.82;33.85;;;;;;;11.79;45.07;100555.88;4950528;28;20027;-50
2022/03/25 07:35:37;;;;;;;59.80;32.03;;;;;;;11.85;45.26;100556.88;4949380;28;20106;-52
2022/03/25 07:38:02;;;;;;;59.47;32.92;;;;;;;10.76;47.06;100553.34;4943406;28;20106;-52
2022/03/25 07:40:28;;;;;;;62.53;35.25;;;;;;;11.11;46.63;100555.69;4939133;28;20055;-53
2022/03/25 07:42:53;;;;;;;64.03;34.22;;;;;;;11.64;45.25;100555.38;4941366;29;20039;-52
2022/03/25 07:45:19;;;;;;;67.28;34.67;;;;;;;11.51;46.04;100566.22;4938032;28;20035;-49
2022/03/25 07:47:46;;;;;;;70.32;34.28;;;;;;;11.62;45.93;100560.13;4948096;29;20027;-50
2022/03/25 07:50:13;;;;;;;66.85;34.75;;;;;;;12.03;45.34;100570.41;4949973;28;20062;-52
2022/03/25 07:52:39;;;;;;;71.63;35.00;;;;;;;12.43;45.18;100564.69;4943886;29;20110;-49
2022/03/25 07:55:05;;;;;;;63.67;33.50;;;;;;;12.12;44.97;100572.81;4945098;28;20556;-51
2022/03/25 07:57:34;;;;;;;62.08;33.83;;;;;;;12.10;44.55;100570.34;4946910;29;20032;-52
2022/03/25 08:00:00;;;;;;;74.32;34.92;;;;;;;12.35;44.15;100566.81;4943921;28;20467;-52
2022/03/25 08:02:25;;;;;;;71.10;34.22;;;;;;;12.30;44.08;100565.63;4947294;28;20549;-53
2022/03/25 08:04:51;;;;;;;70.45;33.50;;;;;;;12.01;45.56;100574.38;4950404;28;20042;-50
2022/03/25 08:07:16;;;;;;;64.32;33.88;;;;;;;12.07;46.51;100576.97;4950321;28;20394;-52
2022/03/25 08:09:42;;;;;;;66.05;33.53;;;;;;;12.95;45.13;100572.38;4936373;28;20027;-52
2022/03/25 08:12:08;;;;;;;57.38;32.55;;;;;;;13.71;42.74;100580.94;4951454;28;20486;-52
2022/03/25 08:14:34;;;;;;;76.50;34.30;;;;;;;13.21;44.34;100573.13;4949715;29;20913;-50
2022/03/25 08:17:00;;;;;;;73.32;35.53;;;;;;;13.42;43.40;100571.81;4941880;28;20039;-53
2022/03/25 08:19:25;;;;;;;75.18;34.08;;;;;;;13.11;44.13;100570.97;4948972;28;20321;-52
2022/03/25 08:21:51;;;;;;;73.00;32.80;;;;;;;13.76;43.84;100583.78;4940014;28;20055;-51
2022/03/25 08:29:46;;;;;;;91.05;36.95;;;;;;;14.45;42.52;100593.00;4945513;29;20033;-56
2022/03/25 08:32:12;;;;;;;77.53;34.75;;;;;;;13.47;42.55;100585.44;4943008;28;20174;-50
2022/03/25 08:34:37;;;;;;;82.82;35.58;;;;;;;13.65;44.92;100581.84;4949376;28;20027;-52
2022/03/25 08:37:03;;;;;;;82.97;38.30;;;;;;;13.71;42.30;100586.34;4940478;28;20047;-50
2022/03/25 08:39:28;;;;;;;78.88;35.17;;;;;;;13.89;41.98;100583.56;4936133;29;20042;-51
2022/03/25 08:41:54;;;;;;;94.28;35.92;;;;;;;12.49;44.03;100590.66;4949665;28;20039;-50
2022/03/25 08:44:19;;;;;;;76.28;37.10;;;;;;;12.61;44.44;100585.38;4946070;29;20037;-50
2022/03/25 08:46:45;;;;;;;82.05;35.10;;;;;;;12.63;45.42;100588.69;4948297;28;20054;-49
2022/03/25 08:49:10;;;;;;;104.60;36.00;;;;;;;13.03;43.73;100582.88;4944009;28;20042;-52
2022/03/25 08:51:36;;;;;;;90.00;37.08;;;;;;;13.31;43.25;100587.72;4947236;28;20497;-54
2022/03/25 08:54:01;;;;;;;80.57;35.88;;;;;;;12.94;44.64;100589.59;4949459;28;20083;-49
2022/03/25 08:56:30;;;;;;;78.28;34.67;;;;;;;13.28;42.74;100595.41;4948004;28;20039;-49
2022/03/25 08:58:58;;;;;;;74.82;35.63;;;;;;;13.74;42.63;100596.66;4947579;29;20095;-50
2022/03/25 09:01:24;;;;;;;85.82;35.33;;;;;;;14.23;41.01;100595.47;4948490;28;20101;-50
2022/03/25 09:03:49;;;;;;;84.63;36.33;;;;;;;14.78;40.36;100597.00;4949625;28;20481;-52
2022/03/25 09:06:15;;;;;;;70.45;35.08;;;;;;;14.74;39.82;100600.41;4947649;28;20054;-52
2022/03/25 09:08:40;;;;;;;79.53;36.03;;;;;;;14.48;40.85;100601.66;4948686;29;20086;-51
2022/03/25 09:11:06;;;;;;;82.30;34.03;;;;;;;14.12;41.74;100601.66;4944264;28;20414;-52
2022/03/25 09:13:31;;;;;;;84.32;36.05;;;;;;;14.67;41.27;100605.91;4946999;29;20426;-52
2022/03/25 09:15:57;;;;;;;69.40;34.13;;;;;;;13.98;41.17;100598.34;4935262;28;20502;-50
2022/03/25 09:18:22;;;;;;;81.60;35.03;;;;;;;13.63;42.25;100597.41;4949462;28;20157;-51
2022/03/25 09:20:48;;;;;;;78.13;34.53;;;;;;;14.44;41.75;100596.75;4947302;28;20561;-50
2022/03/25 09:23:13;;;;;;;77.82;35.63;;;;;;;13.81;41.49;100600.88;4946247;28;20035;-53
2022/03/25 09:25:39;;;;;;;80.75;36.35;;;;;;;14.53;40.77;100599.97;4940058;28;20051;-53
2022/03/25 09:28:05;;;;;;;91.10;35.38;;;;;;;15.28;39.72;100595.59;4942837;29;20027;-50
2022/03/25 09:30:31;;;;;;;71.20;33.15;;;;;;;16.14;39.10;100603.66;4937690;28;20126;-53
2022/03/25 09:32:56;;;;;;;75.50;34.95;;;;;;;16.08;37.91;100605.47;4948759;29;20679;-52
2022/03/25 09:35:22;;;;;;;72.90;33.88;;;;;;;16.27;38.07;100595.19;4948759;28;20058;-52
2022/03/25 09:37:49;;;;;;;77.85;34.78;;;;;;;16.13;37.55;100602.84;4945176;28;20019;-53
2022/03/25 09:40:22;;;;;;;73.07;35.67;;;;;;;15.37;38.40;100596.03;4937116;28;20043;-49
2022/03/25 09:42:50;;;;;;;79.18;34.75;;;;;;;16.42;37.79;100599.19;4943578;29;20027;-52
2022/03/25 09:45:16;;;;;;;69.78;34.38;;;;;;;16.36;37.13;100595.63;4941872;28;20113;-53
2022/03/25 09:47:41;;;;;;;82.45;37.00;;;;;;;14.66;39.37;100599.72;4944213;29;20041;-52
2022/03/25 09:50:09;;;;;;;68.13;36.28;;;;;;;15.65;39.46;100595.19;4947325;28;20683;-53
2022/03/25 09:52:34;;;;;;;66.90;34.97;;;;;;;16.04;38.40;100596.19;4943933;29;20034;-52
2022/03/25 09:55:00;;;;;;;69.70;35.10;;;;;;;16.09;37.85;100601.69;4946623;28;20035;-50
2022/03/25 09:57:28;;;;;;;63.20;36.10;;;;;;;16.53;37.05;100599.13;4944925;29;20928;-51
2022/03/25 09:59:53;;;;;;;67.18;34.88;;;;;;;16.65;36.61;100590.06;4945267;28;20031;-52
2022/03/25 10:02:19;;;;;;;79.00;35.33;;;;;;;15.99;37.71;100582.56;4942600;28;20442;-50
2022/03/25 10:04:46;;;;;;;74.32;35.40;;;;;;;17.33;35.83;100594.22;4944721;28;20101;-51
2022/03/25 10:07:25;;;;;;;70.68;35.53;;;;;;;17.67;35.67;100596.72;4945198;28;20094;-50
2022/03/25 10:10:19;;;;;;;78.82;36.70;;;;;;;17.94;36.17;100599.44;4947369;28;20482;-49
2022/03/25 10:12:48;;;;;;;76.40;33.97;;;;;;;17.46;37.92;100593.81;4945808;28;20408;-53
2022/03/25 10:15:40;;;;;;;80.35;36.15;;;;;;;16.55;36.19;100594.28;4945052;28;20042;-51
2022/03/25 10:18:09;;;;;;;62.53;35.65;;;;;;;15.95;38.30;100594.97;4960970;28;20048;-52
2022/03/25 10:21:00;;;;;;;64.65;34.58;;;;;;;15.80;38.71;100586.56;4964873;28;20497;-52
2022/03/25 10:23:25;;;;;;;65.40;34.17;;;;;;;16.60;37.56;100588.13;4964067;28;20070;-52
2022/03/25 10:25:53;;;;;;;71.35;34.83;;;;;;;17.75;36.48;100585.44;4966904;28;20039;-49
2022/03/25 10:28:23;;;;;;;82.50;35.63;;;;;;;16.85;38.40;100590.38;4966403;28;20026;-52
2022/03/25 10:30:51;;;;;;;78.70;35.47;;;;;;;17.52;35.57;100586.53;4964706;28;20043;-51
2022/03/25 10:33:25;;;;;;;72.82;33.53;;;;;;;17.88;34.99;100579.59;4963923;28;20026;-53
2022/03/25 10:36:01;;;;;;;68.72;33.20;;;;;;;17.93;35.81;100597.00;4963431;28;20035;-52
2022/03/25 10:38:39;;;;;;;80.07;34.03;;;;;;;17.31;36.14;100590.94;4966001;28;20021;-53
2022/03/25 10:41:04;;;;;;;65.63;34.33;;;;;;;17.78;35.04;100584.91;4963076;28;20054;-51
2022/03/25 10:43:30;;;;;;;69.40;34.63;;;;;;;17.39;35.19;100593.19;4962296;28;20337;-52
2022/03/25 10:45:55;;;;;;;76.18;34.72;;;;;;;17.17;36.00;100586.97;4962574;28;20564;-51
2022/03/25 10:48:21;;;;;;;68.40;32.63;;;;;;;18.32;35.42;100590.28;4961675;28;20023;-50
2022/03/25 10:51:03;;;;;;;79.15;36.22;;;;;;;18.47;33.99;100586.00;4964983;28;20034;-52
2022/03/25 10:53:31;;;;;;;75.32;34.88;;;;;;;18.60;33.64;100587.47;4954210;28;20043;-52
2022/03/25 10:56:00;;;;;;;70.60;35.30;;;;;;;17.32;33.70;100581.72;4955090;28;20031;-52
2022/03/25 10:58:26;;;;;;;73.93;35.17;;;;;;;16.61;36.36;100584.34;4962300;28;20564;-52
2022/03/25 11:00:51;;;;;;;61.05;34.05;;;;;;;18.10;34.31;100587.66;4955870;28;20177;-49
2022/03/25 11:03:17;;;;;;;68.85;35.40;;;;;;;17.88;34.04;100579.59;4963960;28;20030;-50
2022/03/25 11:05:45;;;;;;;64.85;34.88;;;;;;;18.14;33.77;100582.53;4966065;28;20055;-51
2022/03/25 11:08:11;;;;;;;70.82;32.38;;;;;;;18.02;34.10;100580.00;4966310;28;20029;-51
2022/03/25 11:10:36;;;;;;;66.95;36.10;;;;;;;16.90;35.42;100578.78;4964472;28;20043;-50
2022/03/25 11:13:02;;;;;;;71.57;35.88;;;;;;;16.83;35.41;100572.75;4959691;28;20037;-52
2022/03/25 11:15:28;;;;;;;67.18;33.58;;;;;;;16.24;35.38;100573.25;4966556;28;20043;-51